sensor_id;sensor_type;location;lat;lon;timestamp;pressure;altitude;pressure_sealevel;temperature;humidity
35551;BME280;21655;46.056;13.616;2023-07-20T00:02:14;99787.13;;;21.86;100.00
35551;BME280;21655;46.056;13.616;2023-07-20T00:04:39;99789.94;;;21.86;100.00
35551;BME280;21655;46.056;13.616;2023-07-20T00:07:05;99803.44;;;21.79;100.00
35551;BME280;21655;46.056;13.616;2023-07-20T00:09:31;99806.25;;;21.79;100.00
35551;BME280;21655;46.056;13.616;2023-07-20T00:11:57;99802.50;;;21.74;100.00
35551;BME280;21655;46.056;13.616;2023-07-20T00:14:25;99795.41;;;21.71;100.00
35551;BME280;21655;46.056;13.616;2023-07-20T00:16:51;99789.78;;;21.71;100.00
35551;BME280;21655;46.056;13.616;2023-07-20T00:19:24;99792.03;;;21.69;100.00
35551;BME280;21655;46.056;13.616;2023-07-20T00:21:50;99773.13;;;21.70;100.00
35551;BME280;21655;46.056;13.616;2023-07-20T00:24:16;99778.47;;;21.71;100.00
35551;BME280;21655;46.056;13.616;2023-07-20T00:26:42;99773.41;;;21.73;100.00
35551;BME280;21655;46.056;13.616;2023-07-20T00:29:07;99771.72;;;21.72;100.00
35551;BME280;21655;46.056;13.616;2023-07-20T00:31:32;99754.78;;;21.72;100.00
35551;BME280;21655;46.056;13.616;2023-07-20T00:34:00;99775.41;;;21.73;100.00
35551;BME280;21655;46.056;13.616;2023-07-20T00:36:25;99780.94;;;21.63;100.00
35551;BME280;21655;46.056;13.616;2023-07-20T00:38:51;99777.50;;;21.61;100.00
35551;BME280;21655;46.056;13.616;2023-07-20T00:41:16;99785.47;;;21.64;100.00
35551;BME280;21655;46.056;13.616;2023-07-20T00:43:42;99783.50;;;21.64;100.00
35551;BME280;21655;46.056;13.616;2023-07-20T00:46:08;99792.72;;;21.60;100.00
35551;BME280;21655;46.056;13.616;2023-07-20T00:48:34;99792.72;;;21.60;100.00
35551;BME280;21655;46.056;13.616;2023-07-20T00:51:01;99805.34;;;21.52;100.00
35551;BME280;21655;46.056;13.616;2023-07-20T00:53:27;99794.38;;;21.56;100.00
35551;BME280;21655;46.056;13.616;2023-07-20T00:55:53;99788.47;;;21.57;100.00
35551;BME280;21655;46.056;13.616;2023-07-20T00:58:19;99784.78;;;21.57;100.00
35551;BME280;21655;46.056;13.616;2023-07-20T01:00:45;99780.84;;;21.58;100.00
35551;BME280;21655;46.056;13.616;2023-07-20T01:03:10;99767.00;;;21.56;100.00
35551;BME280;21655;46.056;13.616;2023-07-20T01:05:50;99766.69;;;21.53;100.00
35551;BME280;21655;46.056;13.616;2023-07-20T01:11:11;99760.22;;;21.57;100.00
35551;BME280;21655;46.056;13.616;2023-07-20T01:13:38;99745.34;;;21.62;100.00
35551;BME280;21655;46.056;13.616;2023-07-20T01:16:04;99744.22;;;21.89;100.00
35551;BME280;21655;46.056;13.616;2023-07-20T01:18:30;99741.00;;;22.07;100.00
35551;BME280;21655;46.056;13.616;2023-07-20T01:20:59;99735.22;;;22.29;100.00
35551;BME280;21655;46.056;13.616;2023-07-20T01:30:11;99720.81;;;22.62;100.00
35551;BME280;21655;46.056;13.616;2023-07-20T01:32:40;99723.94;;;22.65;100.00
35551;BME280;21655;46.056;13.616;2023-07-20T01:35:08;99729.34;;;22.72;100.00
35551;BME280;21655;46.056;13.616;2023-07-20T01:37:35;99723.69;;;22.72;100.00
35551;BME280;21655;46.056;13.616;2023-07-20T01:40:02;99718.88;;;22.72;100.00
35551;BME280;21655;46.056;13.616;2023-07-20T01:42:28;99712.09;;;22.73;100.00
35551;BME280;21655;46.056;13.616;2023-07-20T01:44:54;99717.72;;;22.68;100.00
35551;BME280;21655;46.056;13.616;2023-07-20T01:47:20;99722.84;;;22.71;100.00
35551;BME280;21655;46.056;13.616;2023-07-20T01:49:45;99719.16;;;22.71;100.00
35551;BME280;21655;46.056;13.616;2023-07-20T01:52:11;99725.66;;;22.71;100.00
35551;BME280;21655;46.056;13.616;2023-07-20T01:54:36;99725.66;;;22.71;100.00
35551;BME280;21655;46.056;13.616;2023-07-20T01:57:02;99713.22;;;22.72;100.00
35551;BME280;21655;46.056;13.616;2023-07-20T01:59:28;99709.00;;;22.75;100.00
35551;BME280;21655;46.056;13.616;2023-07-20T02:01:53;99713.28;;;22.77;100.00
35551;BME280;21655;46.056;13.616;2023-07-20T02:04:19;99726.84;;;22.80;100.00
35551;BME280;21655;46.056;13.616;2023-07-20T02:06:44;99719.50;;;22.84;100.00
35551;BME280;21655;46.056;13.616;2023-07-20T02:09:10;99709.66;;;22.92;100.00
35551;BME280;21655;46.056;13.616;2023-07-20T02:11:35;99715.00;;;22.88;100.00
35551;BME280;21655;46.056;13.616;2023-07-20T02:14:00;99716.69;;;22.89;100.00
35551;BME280;21655;46.056;13.616;2023-07-20T02:16:26;99722.34;;;22.89;100.00
35551;BME280;21655;46.056;13.616;2023-07-20T02:18:52;99733.41;;;22.96;100.00
35551;BME280;21655;46.056;13.616;2023-07-20T02:21:18;99735.69;;;22.94;100.00
35551;BME280;21655;46.056;13.616;2023-07-20T02:23:43;99735.09;;;22.92;100.00
35551;BME280;21655;46.056;13.616;2023-07-20T02:28:34;99746.44;;;22.97;100.00
35551;BME280;21655;46.056;13.616;2023-07-20T02:30:59;99755.53;;;22.99;100.00
35551;BME280;21655;46.056;13.616;2023-07-20T02:33:25;99753.19;;;22.91;100.00
35551;BME280;21655;46.056;13.616;2023-07-20T02:35:52;99752.88;;;22.87;100.00
35551;BME280;21655;46.056;13.616;2023-07-20T02:38:17;99751.75;;;22.83;100.00
35551;BME280;21655;46.056;13.616;2023-07-20T02:40:43;99749.63;;;22.64;100.00
35551;BME280;21655;46.056;13.616;2023-07-20T02:43:08;99750.38;;;22.44;100.00
35551;BME280;21655;46.056;13.616;2023-07-20T02:45:35;99745.84;;;22.43;100.00
35551;BME280;21655;46.056;13.616;2023-07-20T02:48:00;99747.00;;;22.47;100.00
35551;BME280;21655;46.056;13.616;2023-07-20T02:50:26;99741.44;;;22.57;100.00
35551;BME280;21655;46.056;13.616;2023-07-20T02:52:51;99743.47;;;22.67;100.00
35551;BME280;21655;46.056;13.616;2023-07-20T02:55:17;99743.16;;;22.68;100.00
35551;BME280;21655;46.056;13.616;2023-07-20T02:57:42;99751.34;;;22.65;100.00
35551;BME280;21655;46.056;13.616;2023-07-20T03:00:08;99746.28;;;22.67;100.00
35551;BME280;21655;46.056;13.616;2023-07-20T03:02:34;99746.28;;;22.67;100.00
35551;BME280;21655;46.056;13.616;2023-07-20T03:05:00;99741.44;;;22.62;100.00
35551;BME280;21655;46.056;13.616;2023-07-20T03:07:27;99750.47;;;22.59;100.00
35551;BME280;21655;46.056;13.616;2023-07-20T03:09:53;99756.66;;;22.56;100.00
35551;BME280;21655;46.056;13.616;2023-07-20T03:12:20;99750.16;;;22.51;100.00
35551;BME280;21655;46.056;13.616;2023-07-20T03:14:45;99750.16;;;22.51;100.00
35551;BME280;21655;46.056;13.616;2023-07-20T03:17:11;99752.75;;;22.57;100.00
35551;BME280;21655;46.056;13.616;2023-07-20T03:19:36;99763.50;;;22.60;100.00
35551;BME280;21655;46.056;13.616;2023-07-20T03:22:02;99766.53;;;22.49;100.00
35551;BME280;21655;46.056;13.616;2023-07-20T03:24:27;99781.00;;;22.31;100.00
35551;BME280;21655;46.056;13.616;2023-07-20T03:26:53;99794.91;;;22.01;100.00
35551;BME280;21655;46.056;13.616;2023-07-20T03:29:18;99802.03;;;21.82;100.00
35551;BME280;21655;46.056;13.616;2023-07-20T03:31:44;99811.25;;;21.72;100.00
35551;BME280;21655;46.056;13.616;2023-07-20T03:34:09;99810.59;;;21.65;100.00
35551;BME280;21655;46.056;13.616;2023-07-20T03:36:34;99817.22;;;21.54;100.00
35551;BME280;21655;46.056;13.616;2023-07-20T03:39:00;99820.56;;;21.51;100.00
35551;BME280;21655;46.056;13.616;2023-07-20T03:41:25;99821.84;;;21.39;100.00
35551;BME280;21655;46.056;13.616;2023-07-20T03:43:51;99823.69;;;21.28;100.00
35551;BME280;21655;46.056;13.616;2023-07-20T03:46:17;99828.50;;;21.33;100.00
35551;BME280;21655;46.056;13.616;2023-07-20T03:48:42;99833.94;;;21.39;100.00
35551;BME280;21655;46.056;13.616;2023-07-20T03:51:07;99831.53;;;21.48;100.00
35551;BME280;21655;46.056;13.616;2023-07-20T03:53:33;99834.44;;;21.53;100.00
35551;BME280;21655;46.056;13.616;2023-07-20T03:55:58;99836.44;;;21.57;100.00
35551;BME280;21655;46.056;13.616;2023-07-20T03:58:24;99845.38;;;21.49;100.00
35551;BME280;21655;46.056;13.616;2023-07-20T04:00:51;99845.00;;;21.41;100.00
35551;BME280;21655;46.056;13.616;2023-07-20T04:03:20;99839.53;;;21.34;100.00
35551;BME280;21655;46.056;13.616;2023-07-20T04:05:46;99848.66;;;21.20;100.00
35551;BME280;21655;46.056;13.616;2023-07-20T04:08:12;99844.91;;;21.14;100.00
35551;BME280;21655;46.056;13.616;2023-07-20T04:10:38;99843.28;;;21.18;100.00
35551;BME280;21655;46.056;13.616;2023-07-20T04:13:04;99862.25;;;21.23;100.00
35551;BME280;21655;46.056;13.616;2023-07-20T04:15:30;99863.69;;;21.25;100.00
35551;BME280;21655;46.056;13.616;2023-07-20T04:17:56;99858.84;;;21.21;100.00
35551;BME280;21655;46.056;13.616;2023-07-20T04:20:23;99867.53;;;21.19;100.00
35551;BME280;21655;46.056;13.616;2023-07-20T04:22:48;99866.41;;;21.20;100.00
35551;BME280;21655;46.056;13.616;2023-07-20T04:25:15;99871.81;;;21.22;100.00
35551;BME280;21655;46.056;13.616;2023-07-20T04:27:40;99872.41;;;21.24;100.00
35551;BME280;21655;46.056;13.616;2023-07-20T04:30:07;99867.00;;;21.22;100.00
35551;BME280;21655;46.056;13.616;2023-07-20T04:32:33;99870.41;;;21.24;100.00
35551;BME280;21655;46.056;13.616;2023-07-20T04:34:59;99862.88;;;21.30;100.00
35551;BME280;21655;46.056;13.616;2023-07-20T04:37:24;99870.94;;;21.21;100.00
35551;BME280;21655;46.056;13.616;2023-07-20T04:39:50;99870.75;;;21.28;100.00
35551;BME280;21655;46.056;13.616;2023-07-20T04:42:15;99864.16;;;21.39;100.00
35551;BME280;21655;46.056;13.616;2023-07-20T04:44:41;99865.25;;;21.38;100.00
35551;BME280;21655;46.056;13.616;2023-07-20T04:47:06;99868.88;;;21.33;100.00
35551;BME280;21655;46.056;13.616;2023-07-20T04:49:32;99869.50;;;21.40;100.00
35551;BME280;21655;46.056;13.616;2023-07-20T04:51:57;99876.66;;;21.48;100.00
35551;BME280;21655;46.056;13.616;2023-07-20T04:54:22;99876.22;;;21.56;100.00
35551;BME280;21655;46.056;13.616;2023-07-20T04:56:48;99881.94;;;21.82;100.00
35551;BME280;21655;46.056;13.616;2023-07-20T04:59:13;99876.66;;;22.39;100.00
35551;BME280;21655;46.056;13.616;2023-07-20T05:01:39;99879.09;;;22.93;100.00
35551;BME280;21655;46.056;13.616;2023-07-20T05:04:05;99883.31;;;23.32;100.00
35551;BME280;21655;46.056;13.616;2023-07-20T05:06:30;99880.88;;;23.50;100.00
35551;BME280;21655;46.056;13.616;2023-07-20T05:08:55;99880.38;;;23.68;100.00
35551;BME280;21655;46.056;13.616;2023-07-20T05:11:21;99882.97;;;23.75;100.00
35551;BME280;21655;46.056;13.616;2023-07-20T05:13:46;99880.09;;;23.65;100.00
35551;BME280;21655;46.056;13.616;2023-07-20T05:16:12;99879.84;;;23.76;100.00
35551;BME280;21655;46.056;13.616;2023-07-20T05:18:37;99875.16;;;24.02;100.00
35551;BME280;21655;46.056;13.616;2023-07-20T05:21:03;99873.81;;;24.39;100.00
35551;BME280;21655;46.056;13.616;2023-07-20T05:23:28;99880.94;;;24.77;100.00
35551;BME280;21655;46.056;13.616;2023-07-20T05:25:58;99867.28;;;25.13;100.00
35551;BME280;21655;46.056;13.616;2023-07-20T05:28:24;99852.22;;;25.38;100.00
35551;BME280;21655;46.056;13.616;2023-07-20T05:30:51;99861.22;;;25.65;100.00
35551;BME280;21655;46.056;13.616;2023-07-20T05:33:18;99861.78;;;25.62;100.00
35551;BME280;21655;46.056;13.616;2023-07-20T05:35:43;99851.16;;;25.82;100.00
35551;BME280;21655;46.056;13.616;2023-07-20T05:38:09;99853.59;;;26.09;100.00
35551;BME280;21655;46.056;13.616;2023-07-20T05:40:37;99853.00;;;26.17;100.00
35551;BME280;21655;46.056;13.616;2023-07-20T05:43:03;99856.56;;;26.37;100.00
35551;BME280;21655;46.056;13.616;2023-07-20T05:45:28;99854.38;;;26.24;100.00
35551;BME280;21655;46.056;13.616;2023-07-20T05:47:54;99859.97;;;26.39;100.00
35551;BME280;21655;46.056;13.616;2023-07-20T05:50:19;99859.22;;;26.62;100.00
35551;BME280;21655;46.056;13.616;2023-07-20T05:52:44;99853.41;;;26.77;100.00
35551;BME280;21655;46.056;13.616;2023-07-20T05:55:10;99846.38;;;26.98;100.00
35551;BME280;21655;46.056;13.616;2023-07-20T05:57:35;99858.81;;;27.12;100.00
35551;BME280;21655;46.056;13.616;2023-07-20T06:00:02;99853.84;;;27.22;100.00
35551;BME280;21655;46.056;13.616;2023-07-20T06:02:28;99858.31;;;27.00;100.00
35551;BME280;21655;46.056;13.616;2023-07-20T06:04:54;99859.03;;;26.87;100.00
35551;BME280;21655;46.056;13.616;2023-07-20T06:07:19;99857.41;;;26.76;100.00
35551;BME280;21655;46.056;13.616;2023-07-20T06:09:45;99858.97;;;26.92;100.00
35551;BME280;21655;46.056;13.616;2023-07-20T06:12:11;99859.03;;;26.87;100.00
35551;BME280;21655;46.056;13.616;2023-07-20T06:14:37;99851.63;;;27.43;100.00
35551;BME280;21655;46.056;13.616;2023-07-20T06:17:03;99852.31;;;27.35;100.00
35551;BME280;21655;46.056;13.616;2023-07-20T06:19:29;99856.38;;;27.76;100.00
35551;BME280;21655;46.056;13.616;2023-07-20T06:21:54;99852.13;;;28.15;100.00
35551;BME280;21655;46.056;13.616;2023-07-20T06:24:20;99847.28;;;27.74;100.00
35551;BME280;21655;46.056;13.616;2023-07-20T06:26:45;99847.91;;;27.42;100.00
35551;BME280;21655;46.056;13.616;2023-07-20T06:29:10;99850.41;;;27.49;100.00
35551;BME280;21655;46.056;13.616;2023-07-20T06:31:36;99862.03;;;27.01;100.00
35551;BME280;21655;46.056;13.616;2023-07-20T06:34:03;99856.19;;;26.87;100.00
35551;BME280;21655;46.056;13.616;2023-07-20T06:36:28;99856.59;;;26.71;100.00
35551;BME280;21655;46.056;13.616;2023-07-20T06:38:54;99857.75;;;26.70;100.00
35551;BME280;21655;46.056;13.616;2023-07-20T06:41:20;99862.56;;;26.74;100.00
35551;BME280;21655;46.056;13.616;2023-07-20T06:43:47;99861.03;;;26.48;100.00
35551;BME280;21655;46.056;13.616;2023-07-20T06:46:12;99864.88;;;26.67;100.00
35551;BME280;21655;46.056;13.616;2023-07-20T06:48:38;99865.69;;;27.01;100.00
35551;BME280;21655;46.056;13.616;2023-07-20T06:51:03;99866.03;;;27.28;100.00
35551;BME280;21655;46.056;13.616;2023-07-20T06:53:30;99864.28;;;27.32;100.00
35551;BME280;21655;46.056;13.616;2023-07-20T06:55:55;99874.94;;;27.21;100.00
35551;BME280;21655;46.056;13.616;2023-07-20T06:58:24;99875.13;;;27.30;100.00
35551;BME280;21655;46.056;13.616;2023-07-20T07:00:50;99870.50;;;27.34;100.00
35551;BME280;21655;46.056;13.616;2023-07-20T07:03:15;99864.94;;;28.18;100.00
35551;BME280;21655;46.056;13.616;2023-07-20T07:05:41;99861.19;;;28.59;100.00
35551;BME280;21655;46.056;13.616;2023-07-20T07:08:07;99856.72;;;29.04;100.00
35551;BME280;21655;46.056;13.616;2023-07-20T07:10:34;99866.72;;;30.05;100.00
35551;BME280;21655;46.056;13.616;2023-07-20T07:13:01;99869.66;;;29.87;100.00
35551;BME280;21655;46.056;13.616;2023-07-20T07:15:26;99869.47;;;29.56;100.00
35551;BME280;21655;46.056;13.616;2023-07-20T07:17:52;99868.06;;;29.09;100.00
35551;BME280;21655;46.056;13.616;2023-07-20T07:20:18;99869.25;;;29.66;100.00
35551;BME280;21655;46.056;13.616;2023-07-20T07:22:43;99858.88;;;30.11;100.00
35551;BME280;21655;46.056;13.616;2023-07-20T07:25:09;99860.91;;;30.59;100.00
35551;BME280;21655;46.056;13.616;2023-07-20T07:27:35;99867.97;;;30.26;100.00
35551;BME280;21655;46.056;13.616;2023-07-20T07:30:00;99853.69;;;29.59;100.00
35551;BME280;21655;46.056;13.616;2023-07-20T07:32:25;99854.00;;;29.84;100.00
35551;BME280;21655;46.056;13.616;2023-07-20T07:34:51;99863.44;;;31.05;100.00
35551;BME280;21655;46.056;13.616;2023-07-20T07:37:17;99853.19;;;31.95;100.00
35551;BME280;21655;46.056;13.616;2023-07-20T07:39:44;99853.03;;;33.07;100.00
35551;BME280;21655;46.056;13.616;2023-07-20T07:42:11;99852.16;;;33.40;100.00
35551;BME280;21655;46.056;13.616;2023-07-20T07:44:36;99857.44;;;33.75;90.52
35551;BME280;21655;46.056;13.616;2023-07-20T07:47:02;99861.09;;;33.93;85.64
35551;BME280;21655;46.056;13.616;2023-07-20T07:49:27;99852.88;;;34.12;73.34
35551;BME280;21655;46.056;13.616;2023-07-20T07:51:53;99850.78;;;34.29;74.09
35551;BME280;21655;46.056;13.616;2023-07-20T07:54:18;99845.44;;;34.40;75.14
35551;BME280;21655;46.056;13.616;2023-07-20T07:56:44;99845.56;;;34.23;69.63
35551;BME280;21655;46.056;13.616;2023-07-20T07:59:09;99852.31;;;34.27;73.95
35551;BME280;21655;46.056;13.616;2023-07-20T08:01:35;99843.31;;;34.78;69.56
35551;BME280;21655;46.056;13.616;2023-07-20T08:04:00;99844.84;;;34.75;58.95
35551;BME280;21655;46.056;13.616;2023-07-20T08:06:26;99842.66;;;34.52;65.54
35551;BME280;21655;46.056;13.616;2023-07-20T08:08:51;99842.97;;;34.79;68.47
35551;BME280;21655;46.056;13.616;2023-07-20T08:11:16;99850.38;;;34.60;69.93
35551;BME280;21655;46.056;13.616;2023-07-20T08:13:43;99834.47;;;34.33;62.86
35551;BME280;21655;46.056;13.616;2023-07-20T08:16:08;99842.50;;;34.48;62.97
35551;BME280;21655;46.056;13.616;2023-07-20T08:18:34;99836.09;;;34.43;65.92
35551;BME280;21655;46.056;13.616;2023-07-20T08:20:59;99830.47;;;35.08;60.96
35551;BME280;21655;46.056;13.616;2023-07-20T08:23:25;99831.81;;;35.43;65.12
35551;BME280;21655;46.056;13.616;2023-07-20T08:25:52;99826.25;;;35.26;66.41
35551;BME280;21655;46.056;13.616;2023-07-20T08:28:18;99830.56;;;35.64;60.91
35551;BME280;21655;46.056;13.616;2023-07-20T08:30:45;99825.75;;;35.68;54.74
35551;BME280;21655;46.056;13.616;2023-07-20T08:33:13;99816.56;;;36.22;55.96
35551;BME280;21655;46.056;13.616;2023-07-20T08:35:38;99823.53;;;36.33;50.23
35551;BME280;21655;46.056;13.616;2023-07-20T08:38:04;99820.00;;;36.40;53.27
35551;BME280;21655;46.056;13.616;2023-07-20T08:40:34;99822.53;;;36.41;59.42
35551;BME280;21655;46.056;13.616;2023-07-20T08:43:04;99825.50;;;36.69;48.21
35551;BME280;21655;46.056;13.616;2023-07-20T08:45:30;99819.28;;;36.43;48.12
35551;BME280;21655;46.056;13.616;2023-07-20T08:47:58;99828.81;;;36.31;51.63
35551;BME280;21655;46.056;13.616;2023-07-20T08:50:25;99819.84;;;36.72;50.46
35551;BME280;21655;46.056;13.616;2023-07-20T08:52:52;99824.47;;;36.25;50.99
35551;BME280;21655;46.056;13.616;2023-07-20T08:55:20;99824.47;;;36.49;50.81
35551;BME280;21655;46.056;13.616;2023-07-20T08:57:46;99822.72;;;36.84;50.25
35551;BME280;21655;46.056;13.616;2023-07-20T09:00:15;99817.78;;;36.73;49.94
35551;BME280;21655;46.056;13.616;2023-07-20T09:02:43;99819.53;;;36.38;50.04
35551;BME280;21655;46.056;13.616;2023-07-20T09:05:10;99815.63;;;36.70;49.45
35551;BME280;21655;46.056;13.616;2023-07-20T09:07:36;99818.19;;;36.59;48.62
35551;BME280;21655;46.056;13.616;2023-07-20T09:10:02;99809.53;;;36.87;47.56
35551;BME280;21655;46.056;13.616;2023-07-20T09:12:34;99813.50;;;36.43;46.84
35551;BME280;21655;46.056;13.616;2023-07-20T09:15:00;99804.69;;;36.63;45.34
35551;BME280;21655;46.056;13.616;2023-07-20T09:17:26;99806.00;;;36.66;46.73
35551;BME280;21655;46.056;13.616;2023-07-20T09:19:51;99807.13;;;36.49;43.68
35551;BME280;21655;46.056;13.616;2023-07-20T09:22:17;99806.16;;;36.57;46.45
35551;BME280;21655;46.056;13.616;2023-07-20T09:24:43;99806.19;;;36.85;45.45
35551;BME280;21655;46.056;13.616;2023-07-20T09:27:09;99789.28;;;36.59;45.51
35551;BME280;21655;46.056;13.616;2023-07-20T09:29:50;99794.91;;;36.68;47.21
35551;BME280;21655;46.056;13.616;2023-07-20T09:32:20;99791.59;;;36.06;45.06
35551;BME280;21655;46.056;13.616;2023-07-20T09:34:46;99794.25;;;35.87;45.66
35551;BME280;21655;46.056;13.616;2023-07-20T09:37:12;99781.50;;;36.24;47.66
35551;BME280;21655;46.056;13.616;2023-07-20T09:39:44;99796.44;;;36.77;45.80
35551;BME280;21655;46.056;13.616;2023-07-20T09:42:11;99786.72;;;36.97;44.15
35551;BME280;21655;46.056;13.616;2023-07-20T09:44:37;99788.41;;;36.98;45.38
35551;BME280;21655;46.056;13.616;2023-07-20T09:47:03;99785.03;;;36.69;43.63
35551;BME280;21655;46.056;13.616;2023-07-20T09:49:29;99794.47;;;37.48;44.72
35551;BME280;21655;46.056;13.616;2023-07-20T09:51:55;99789.69;;;37.56;43.34
35551;BME280;21655;46.056;13.616;2023-07-20T09:54:22;99785.88;;;37.52;43.03
35551;BME280;21655;46.056;13.616;2023-07-20T09:56:50;99779.44;;;37.74;42.94
35551;BME280;21655;46.056;13.616;2023-07-20T09:59:16;99777.28;;;37.12;43.91
35551;BME280;21655;46.056;13.616;2023-07-20T10:01:42;99776.47;;;37.00;43.88
35551;BME280;21655;46.056;13.616;2023-07-20T10:04:10;99776.00;;;36.70;44.93
35551;BME280;21655;46.056;13.616;2023-07-20T10:06:39;99763.13;;;36.68;44.69
35551;BME280;21655;46.056;13.616;2023-07-20T10:09:07;99776.34;;;37.08;45.07
35551;BME280;21655;46.056;13.616;2023-07-20T10:11:36;99768.72;;;37.16;43.77
35551;BME280;21655;46.056;13.616;2023-07-20T10:14:04;99780.00;;;36.66;43.45
35551;BME280;21655;46.056;13.616;2023-07-20T10:16:39;99770.53;;;36.81;43.40
35551;BME280;21655;46.056;13.616;2023-07-20T10:19:39;99769.34;;;37.09;45.32
35551;BME280;21655;46.056;13.616;2023-07-20T10:22:12;99773.69;;;37.31;43.75
35551;BME280;21655;46.056;13.616;2023-07-20T10:24:39;99766.56;;;37.13;44.70
35551;BME280;21655;46.056;13.616;2023-07-20T10:27:07;99764.88;;;36.84;46.34
35551;BME280;21655;46.056;13.616;2023-07-20T10:29:32;99769.78;;;36.84;44.37
35551;BME280;21655;46.056;13.616;2023-07-20T10:31:58;99776.25;;;37.48;45.01
35551;BME280;21655;46.056;13.616;2023-07-20T10:34:25;99776.25;;;37.78;43.73
35551;BME280;21655;46.056;13.616;2023-07-20T10:36:50;99781.56;;;38.23;43.03
35551;BME280;21655;46.056;13.616;2023-07-20T10:39:28;99770.84;;;37.77;42.13
35551;BME280;21655;46.056;13.616;2023-07-20T10:42:10;99766.44;;;37.68;43.49
35551;BME280;21655;46.056;13.616;2023-07-20T10:44:41;99751.34;;;37.31;43.47
35551;BME280;21655;46.056;13.616;2023-07-20T10:47:11;99766.00;;;37.23;43.88
35551;BME280;21655;46.056;13.616;2023-07-20T10:49:59;99771.84;;;37.54;44.06
35551;BME280;21655;46.056;13.616;2023-07-20T10:52:25;99771.69;;;37.47;45.37
35551;BME280;21655;46.056;13.616;2023-07-20T10:54:51;99770.75;;;37.58;44.68
35551;BME280;21655;46.056;13.616;2023-07-20T10:57:36;99759.31;;;37.34;43.95
35551;BME280;21655;46.056;13.616;2023-07-20T11:00:20;99769.06;;;36.87;46.23
35551;BME280;21655;46.056;13.616;2023-07-20T11:02:48;99760.50;;;37.18;45.34
35551;BME280;21655;46.056;13.616;2023-07-20T11:05:39;99765.81;;;36.88;46.22
35551;BME280;21655;46.056;13.616;2023-07-20T11:08:09;99769.91;;;36.60;46.93
35551;BME280;21655;46.056;13.616;2023-07-20T11:10:35;99777.06;;;36.14;46.24
35551;BME280;21655;46.056;13.616;2023-07-20T11:13:21;99762.88;;;36.09;45.07
35551;BME280;21655;46.056;13.616;2023-07-20T11:16:01;99761.69;;;35.86;49.44
35551;BME280;21655;46.056;13.616;2023-07-20T11:18:28;99761.75;;;36.02;51.81
35551;BME280;21655;46.056;13.616;2023-07-20T11:20:54;99770.03;;;35.44;50.57
35551;BME280;21655;46.056;13.616;2023-07-20T11:23:20;99760.66;;;35.35;47.95
35551;BME280;21655;46.056;13.616;2023-07-20T11:25:46;99758.47;;;34.99;49.37
35551;BME280;21655;46.056;13.616;2023-07-20T11:28:12;99756.06;;;35.01;52.10
35551;BME280;21655;46.056;13.616;2023-07-20T11:30:38;99747.75;;;35.20;52.63
35551;BME280;21655;46.056;13.616;2023-07-20T11:33:04;99740.91;;;34.92;57.14
35551;BME280;21655;46.056;13.616;2023-07-20T11:35:30;99740.97;;;34.72;57.53
35551;BME280;21655;46.056;13.616;2023-07-20T11:37:56;99737.81;;;34.44;54.33
35551;BME280;21655;46.056;13.616;2023-07-20T11:40:22;99737.44;;;34.66;53.53
35551;BME280;21655;46.056;13.616;2023-07-20T11:42:49;99726.25;;;34.65;64.99
35551;BME280;21655;46.056;13.616;2023-07-20T11:45:16;99736.06;;;34.52;60.13
35551;BME280;21655;46.056;13.616;2023-07-20T11:47:43;99740.06;;;34.39;60.86
35551;BME280;21655;46.056;13.616;2023-07-20T11:50:09;99714.84;;;34.36;62.16
35551;BME280;21655;46.056;13.616;2023-07-20T11:52:35;99718.63;;;34.48;58.28
35551;BME280;21655;46.056;13.616;2023-07-20T11:55:01;99722.06;;;34.42;62.58
35551;BME280;21655;46.056;13.616;2023-07-20T11:57:26;99720.81;;;34.31;61.90
35551;BME280;21655;46.056;13.616;2023-07-20T12:00:00;99717.91;;;34.51;62.71
35551;BME280;21655;46.056;13.616;2023-07-20T12:02:27;99718.31;;;34.82;67.18
35551;BME280;21655;46.056;13.616;2023-07-20T12:04:57;99720.06;;;34.54;62.70
35551;BME280;21655;46.056;13.616;2023-07-20T12:07:25;99718.88;;;34.35;60.75
35551;BME280;21655;46.056;13.616;2023-07-20T12:10:08;99700.59;;;34.19;54.23
35551;BME280;21655;46.056;13.616;2023-07-20T12:12:44;99712.00;;;34.07;55.75
35551;BME280;21655;46.056;13.616;2023-07-20T12:17:45;99696.59;;;34.64;62.63
35551;BME280;21655;46.056;13.616;2023-07-20T12:20:11;99694.28;;;34.78;54.94
35551;BME280;21655;46.056;13.616;2023-07-20T12:22:40;99703.31;;;35.01;57.54
35551;BME280;21655;46.056;13.616;2023-07-20T12:25:09;99701.31;;;35.13;53.10
35551;BME280;21655;46.056;13.616;2023-07-20T12:27:37;99688.53;;;35.35;54.17
35551;BME280;21655;46.056;13.616;2023-07-20T12:30:07;99689.31;;;35.11;55.90
35551;BME280;21655;46.056;13.616;2023-07-20T12:32:33;99698.75;;;35.00;57.57
35551;BME280;21655;46.056;13.616;2023-07-20T12:34:58;99683.88;;;35.10;52.48
35551;BME280;21655;46.056;13.616;2023-07-20T12:37:25;99683.16;;;35.13;52.39
35551;BME280;21655;46.056;13.616;2023-07-20T12:39:51;99682.69;;;35.11;47.18
35551;BME280;21655;46.056;13.616;2023-07-20T12:42:17;99679.84;;;35.47;48.16
35551;BME280;21655;46.056;13.616;2023-07-20T12:44:42;99677.59;;;35.64;51.07
35551;BME280;21655;46.056;13.616;2023-07-20T12:47:08;99669.41;;;35.66;49.66
35551;BME280;21655;46.056;13.616;2023-07-20T12:49:33;99659.91;;;35.42;47.56
35551;BME280;21655;46.056;13.616;2023-07-20T12:51:59;99663.47;;;35.15;46.91
35551;BME280;21655;46.056;13.616;2023-07-20T12:54:24;99666.94;;;35.08;47.93
35551;BME280;21655;46.056;13.616;2023-07-20T12:56:49;99662.44;;;35.31;48.37